Startpagina
METAR-TAF:

METAR-TAF

Vliegvelden :

Gulkana, Alaska, Verenigde Staten

breedte: 62-09N, lengte: 145-27W, hoogte: 481 m

Actueel weer

Dit bericht is 1 uur en het 6 minuten geleden gemaakt, om 04:53 UTC
Wind 7 kt uit het noorden
Temperatuur -4°C
Vochtigheid 74%
Druk 1011 hPa
Zicht: 16.1 km
Geheel bewolkt op 8000 ft

METAR: PAGK 090453Z AUTO 36007KT 10SM OVC080 M04/M08 A2986 RMK AO2 SLP139 T10391078 TSNO

Tijdstip: 20:59 (05:59 UTC)

Verwachting

Dit bericht is 15 minuten geleden gemaakt, om 05:44 UTC
Verwachting geldig van 09 om 06 UTC tot 10 om 06 UTC
Wind 7 kt uit het noordnoordoosten
Zicht: 10 km
Gebroken wolken op 8000 ft
Van 10 om 0000 UTC
Wind 11 kt uit het zuidzuidoosten
Zicht: 10 km
Gebroken wolken op 5000 ft

TAF: PAGK 090544Z 0906/1006 02007KT P6SM BKN080 FM100000 15011KT P6SM BKN050

Waarnemingen en weersverwachtingen van meer dan 4000 vliegvelden (METAR en TAF).

De beschikbare stations zijn de gele en rode punten op de kaart.

Ga met uw muis naar het station om de naam te zien.

Klik dan om waarnemingen en weersverwachtingen te zien.

kaart wijzigen: klik op de groene knoppen met een zwart kruis om in te zoomen, op de groene knop met een streepje om uit te zoomen of op de groene pijlen voor aangrenzende kaarten.


METAR-TAF: